首页
METAR-TAF:

METAR-TAF

机场 :

Jackson Municipal Airport

杰克逊, 明尼蘇達州, 美国

纬度: 43-39N, 经度: 094-59W, 海拔: 441米

当前天气观测

该预报发布于20分钟前的20:55 UTC
风速3节,风向东转东北
温度 25°C
湿度 32%
气压 1018 hPa
能見度: 16.1公里
天空无云

METAR: KMJQ 142055Z AUTO 07003KT 10SM CLR 25/07 A3006 RMK AO2

时间: 16:15 (21:15 UTC)


TAF: 丢失

超过4000个机场的气象观测和天气预报(METAR&TAF报告)。

可查询的气象台以黄色和红色小点在地图上表示。

将鼠标移到小点上方,可查看气象台名称。

然后点击查看天气观测和预报。

如需切换地图:点击带黑十字的绿色按钮放大地图;点击带横线的绿色按钮缩小地图;或者点击绿色箭头查看邻近地区的地图。


METAR-TAF: